sensor_id;sensor_type;location;lat;lon;timestamp;P1;durP1;ratioP1;P2;durP2;ratioP2
78838;SDS011;68405;47.190;27.558;2023-05-10T00:01:52;16.90;;;10.70;;
78838;SDS011;68405;47.190;27.558;2023-05-10T00:04:21;13.80;;;9.90;;
78838;SDS011;68405;47.190;27.558;2023-05-10T00:06:54;14.80;;;9.40;;
78838;SDS011;68405;47.190;27.558;2023-05-10T00:09:23;15.30;;;10.30;;
78838;SDS011;68405;47.190;27.558;2023-05-10T00:11:51;16.80;;;10.60;;
78838;SDS011;68405;47.190;27.558;2023-05-10T00:14:21;16.30;;;11.20;;
78838;SDS011;68405;47.190;27.558;2023-05-10T00:16:49;17.90;;;11.20;;
78838;SDS011;68405;47.190;27.558;2023-05-10T00:19:18;18.60;;;10.40;;
78838;SDS011;68405;47.190;27.558;2023-05-10T00:21:47;15.40;;;10.70;;
78838;SDS011;68405;47.190;27.558;2023-05-10T00:24:16;16.40;;;10.70;;
78838;SDS011;68405;47.190;27.558;2023-05-10T00:26:45;15.80;;;10.10;;
78838;SDS011;68405;47.190;27.558;2023-05-10T00:29:14;17.10;;;10.40;;
78838;SDS011;68405;47.190;27.558;2023-05-10T00:31:42;15.00;;;10.60;;
78838;SDS011;68405;47.190;27.558;2023-05-10T00:34:11;16.40;;;9.10;;
78838;SDS011;68405;47.190;27.558;2023-05-10T00:36:40;14.30;;;10.00;;
78838;SDS011;68405;47.190;27.558;2023-05-10T00:39:08;15.90;;;10.70;;
78838;SDS011;68405;47.190;27.558;2023-05-10T00:41:37;16.70;;;10.90;;
78838;SDS011;68405;47.190;27.558;2023-05-10T00:44:07;17.80;;;11.30;;
78838;SDS011;68405;47.190;27.558;2023-05-10T00:46:35;14.90;;;11.40;;
78838;SDS011;68405;47.190;27.558;2023-05-10T00:49:04;14.30;;;10.00;;
78838;SDS011;68405;47.190;27.558;2023-05-10T00:51:34;14.00;;;10.70;;
78838;SDS011;68405;47.190;27.558;2023-05-10T00:54:03;16.60;;;11.10;;
78838;SDS011;68405;47.190;27.558;2023-05-10T00:56:33;16.90;;;11.10;;
78838;SDS011;68405;47.190;27.558;2023-05-10T00:59:02;18.30;;;12.40;;
78838;SDS011;68405;47.190;27.558;2023-05-10T01:01:31;19.90;;;11.70;;
78838;SDS011;68405;47.190;27.558;2023-05-10T01:04:00;18.90;;;13.40;;
78838;SDS011;68405;47.190;27.558;2023-05-10T01:06:29;18.40;;;12.80;;
78838;SDS011;68405;47.190;27.558;2023-05-10T01:08:59;19.40;;;12.90;;
78838;SDS011;68405;47.190;27.558;2023-05-10T01:11:28;18.70;;;12.60;;
78838;SDS011;68405;47.190;27.558;2023-05-10T01:13:57;24.00;;;12.30;;
78838;SDS011;68405;47.190;27.558;2023-05-10T01:16:27;19.20;;;11.90;;
78838;SDS011;68405;47.190;27.558;2023-05-10T01:18:59;17.50;;;12.40;;
78838;SDS011;68405;47.190;27.558;2023-05-10T01:21:29;18.20;;;12.30;;
78838;SDS011;68405;47.190;27.558;2023-05-10T01:27:30;18.30;;;11.60;;
78838;SDS011;68405;47.190;27.558;2023-05-10T01:30:35;16.30;;;12.40;;
78838;SDS011;68405;47.190;27.558;2023-05-10T01:33:18;21.80;;;12.70;;
78838;SDS011;68405;47.190;27.558;2023-05-10T01:35:54;19.60;;;12.70;;
78838;SDS011;68405;47.190;27.558;2023-05-10T01:38:29;18.70;;;12.40;;
78838;SDS011;68405;47.190;27.558;2023-05-10T01:41:08;19.60;;;12.80;;
78838;SDS011;68405;47.190;27.558;2023-05-10T01:43:48;21.50;;;13.80;;
78838;SDS011;68405;47.190;27.558;2023-05-10T01:46:23;19.60;;;12.90;;
78838;SDS011;68405;47.190;27.558;2023-05-10T01:48:57;18.20;;;12.50;;
78838;SDS011;68405;47.190;27.558;2023-05-10T01:51:29;19.10;;;12.30;;
78838;SDS011;68405;47.190;27.558;2023-05-10T01:54:07;18.80;;;13.30;;
78838;SDS011;68405;47.190;27.558;2023-05-10T01:56:38;20.40;;;11.80;;
78838;SDS011;68405;47.190;27.558;2023-05-10T01:59:11;17.50;;;12.20;;
78838;SDS011;68405;47.190;27.558;2023-05-10T02:01:44;19.50;;;13.00;;
78838;SDS011;68405;47.190;27.558;2023-05-10T02:04:15;19.20;;;13.10;;
78838;SDS011;68405;47.190;27.558;2023-05-10T02:06:47;20.00;;;12.10;;
78838;SDS011;68405;47.190;27.558;2023-05-10T02:09:16;19.50;;;12.30;;
78838;SDS011;68405;47.190;27.558;2023-05-10T02:11:47;19.10;;;12.80;;
78838;SDS011;68405;47.190;27.558;2023-05-10T02:14:17;18.90;;;12.60;;
78838;SDS011;68405;47.190;27.558;2023-05-10T02:16:47;20.20;;;13.80;;
78838;SDS011;68405;47.190;27.558;2023-05-10T02:19:18;21.20;;;13.90;;
78838;SDS011;68405;47.190;27.558;2023-05-10T02:21:48;21.50;;;13.40;;
78838;SDS011;68405;47.190;27.558;2023-05-10T02:24:18;23.50;;;13.70;;
78838;SDS011;68405;47.190;27.558;2023-05-10T02:26:48;17.10;;;12.10;;
78838;SDS011;68405;47.190;27.558;2023-05-10T02:29:19;19.70;;;13.50;;
78838;SDS011;68405;47.190;27.558;2023-05-10T03:01:58;21.90;;;12.80;;
78838;SDS011;68405;47.190;27.558;2023-05-10T03:04:27;21.10;;;13.90;;
78838;SDS011;68405;47.190;27.558;2023-05-10T03:06:56;18.80;;;13.50;;
78838;SDS011;68405;47.190;27.558;2023-05-10T03:09:25;21.50;;;14.40;;
78838;SDS011;68405;47.190;27.558;2023-05-10T03:11:55;21.40;;;13.50;;
78838;SDS011;68405;47.190;27.558;2023-05-10T03:14:34;19.70;;;13.70;;
78838;SDS011;68405;47.190;27.558;2023-05-10T03:17:19;22.40;;;14.40;;
78838;SDS011;68405;47.190;27.558;2023-05-10T03:19:54;22.80;;;14.10;;
78838;SDS011;68405;47.190;27.558;2023-05-10T03:22:24;22.60;;;14.70;;
78838;SDS011;68405;47.190;27.558;2023-05-10T03:24:56;22.80;;;15.20;;
78838;SDS011;68405;47.190;27.558;2023-05-10T03:27:26;22.60;;;15.60;;
78838;SDS011;68405;47.190;27.558;2023-05-10T03:29:56;25.10;;;15.80;;
78838;SDS011;68405;47.190;27.558;2023-05-10T03:32:25;21.00;;;15.80;;
78838;SDS011;68405;47.190;27.558;2023-05-10T03:34:57;21.30;;;15.60;;
78838;SDS011;68405;47.190;27.558;2023-05-10T03:37:25;21.00;;;16.70;;
78838;SDS011;68405;47.190;27.558;2023-05-10T03:39:54;24.40;;;16.30;;
78838;SDS011;68405;47.190;27.558;2023-05-10T03:42:23;24.20;;;15.40;;
78838;SDS011;68405;47.190;27.558;2023-05-10T03:44:52;18.70;;;14.10;;
78838;SDS011;68405;47.190;27.558;2023-05-10T03:47:21;20.30;;;14.30;;
78838;SDS011;68405;47.190;27.558;2023-05-10T03:49:50;19.20;;;13.60;;
78838;SDS011;68405;47.190;27.558;2023-05-10T03:52:19;21.20;;;14.60;;
78838;SDS011;68405;47.190;27.558;2023-05-10T03:54:48;17.70;;;13.50;;
78838;SDS011;68405;47.190;27.558;2023-05-10T03:57:16;16.60;;;11.90;;
78838;SDS011;68405;47.190;27.558;2023-05-10T03:59:45;16.80;;;12.20;;
78838;SDS011;68405;47.190;27.558;2023-05-10T04:02:15;13.70;;;9.70;;
78838;SDS011;68405;47.190;27.558;2023-05-10T04:04:44;13.30;;;10.10;;
78838;SDS011;68405;47.190;27.558;2023-05-10T04:07:13;12.00;;;9.00;;
78838;SDS011;68405;47.190;27.558;2023-05-10T04:09:42;9.40;;;8.10;;
78838;SDS011;68405;47.190;27.558;2023-05-10T04:12:11;12.20;;;8.20;;
78838;SDS011;68405;47.190;27.558;2023-05-10T04:14:40;8.90;;;7.50;;
78838;SDS011;68405;47.190;27.558;2023-05-10T04:17:08;9.60;;;6.80;;
78838;SDS011;68405;47.190;27.558;2023-05-10T04:19:37;7.40;;;6.30;;
78838;SDS011;68405;47.190;27.558;2023-05-10T04:22:07;9.20;;;6.40;;
78838;SDS011;68405;47.190;27.558;2023-05-10T04:24:36;8.20;;;5.70;;
78838;SDS011;68405;47.190;27.558;2023-05-10T04:27:08;8.00;;;6.30;;
78838;SDS011;68405;47.190;27.558;2023-05-10T04:29:38;6.80;;;6.10;;
78838;SDS011;68405;47.190;27.558;2023-05-10T04:32:07;7.60;;;6.20;;
78838;SDS011;68405;47.190;27.558;2023-05-10T04:34:37;9.40;;;5.90;;
78838;SDS011;68405;47.190;27.558;2023-05-10T04:37:06;8.30;;;6.20;;
78838;SDS011;68405;47.190;27.558;2023-05-10T04:39:35;9.50;;;6.60;;
78838;SDS011;68405;47.190;27.558;2023-05-10T04:42:04;7.50;;;6.20;;
78838;SDS011;68405;47.190;27.558;2023-05-10T04:44:33;7.10;;;6.30;;
78838;SDS011;68405;47.190;27.558;2023-05-10T04:47:02;10.60;;;6.50;;
78838;SDS011;68405;47.190;27.558;2023-05-10T04:49:31;7.50;;;6.60;;
78838;SDS011;68405;47.190;27.558;2023-05-10T04:52:00;11.50;;;7.20;;
78838;SDS011;68405;47.190;27.558;2023-05-10T04:54:29;11.00;;;7.20;;
78838;SDS011;68405;47.190;27.558;2023-05-10T04:56:59;9.00;;;6.50;;
78838;SDS011;68405;47.190;27.558;2023-05-10T04:59:28;10.40;;;7.10;;
78838;SDS011;68405;47.190;27.558;2023-05-10T05:01:57;9.00;;;6.80;;
78838;SDS011;68405;47.190;27.558;2023-05-10T05:04:26;10.50;;;7.40;;
78838;SDS011;68405;47.190;27.558;2023-05-10T05:06:54;8.60;;;7.40;;
78838;SDS011;68405;47.190;27.558;2023-05-10T05:09:23;10.40;;;7.30;;
78838;SDS011;68405;47.190;27.558;2023-05-10T05:11:52;11.20;;;8.00;;
78838;SDS011;68405;47.190;27.558;2023-05-10T05:14:21;9.00;;;7.40;;
78838;SDS011;68405;47.190;27.558;2023-05-10T05:16:54;10.20;;;7.00;;
78838;SDS011;68405;47.190;27.558;2023-05-10T05:19:23;10.20;;;7.60;;
78838;SDS011;68405;47.190;27.558;2023-05-10T05:21:52;11.20;;;7.50;;
78838;SDS011;68405;47.190;27.558;2023-05-10T05:24:21;9.60;;;7.20;;
78838;SDS011;68405;47.190;27.558;2023-05-10T05:26:50;11.80;;;6.60;;
78838;SDS011;68405;47.190;27.558;2023-05-10T05:29:19;9.00;;;5.90;;
78838;SDS011;68405;47.190;27.558;2023-05-10T05:31:48;8.40;;;6.50;;
78838;SDS011;68405;47.190;27.558;2023-05-10T05:34:17;10.00;;;6.50;;
78838;SDS011;68405;47.190;27.558;2023-05-10T05:36:47;8.60;;;6.50;;
78838;SDS011;68405;47.190;27.558;2023-05-10T05:39:16;10.00;;;6.50;;
78838;SDS011;68405;47.190;27.558;2023-05-10T05:41:44;11.60;;;6.10;;
78838;SDS011;68405;47.190;27.558;2023-05-10T05:44:14;10.60;;;7.10;;
78838;SDS011;68405;47.190;27.558;2023-05-10T05:46:42;8.40;;;6.50;;
78838;SDS011;68405;47.190;27.558;2023-05-10T05:49:11;8.90;;;5.00;;
78838;SDS011;68405;47.190;27.558;2023-05-10T05:51:40;8.80;;;5.90;;
78838;SDS011;68405;47.190;27.558;2023-05-10T05:54:09;6.30;;;5.30;;
78838;SDS011;68405;47.190;27.558;2023-05-10T05:56:38;10.10;;;4.90;;
78838;SDS011;68405;47.190;27.558;2023-05-10T05:59:07;6.50;;;5.40;;
78838;SDS011;68405;47.190;27.558;2023-05-10T06:01:36;5.00;;;4.20;;
78838;SDS011;68405;47.190;27.558;2023-05-10T06:04:05;6.60;;;4.30;;
78838;SDS011;68405;47.190;27.558;2023-05-10T06:06:34;8.20;;;4.40;;
78838;SDS011;68405;47.190;27.558;2023-05-10T06:09:03;6.00;;;4.10;;
78838;SDS011;68405;47.190;27.558;2023-05-10T06:11:32;6.50;;;4.60;;
78838;SDS011;68405;47.190;27.558;2023-05-10T06:14:02;5.90;;;4.30;;
78838;SDS011;68405;47.190;27.558;2023-05-10T06:16:33;4.80;;;3.80;;
78838;SDS011;68405;47.190;27.558;2023-05-10T06:19:02;4.90;;;3.70;;
78838;SDS011;68405;47.190;27.558;2023-05-10T06:21:31;6.10;;;3.30;;
78838;SDS011;68405;47.190;27.558;2023-05-10T06:24:00;4.10;;;3.60;;
78838;SDS011;68405;47.190;27.558;2023-05-10T06:26:29;5.00;;;3.60;;
78838;SDS011;68405;47.190;27.558;2023-05-10T06:28:58;6.10;;;3.50;;
78838;SDS011;68405;47.190;27.558;2023-05-10T06:31:28;4.50;;;3.70;;
78838;SDS011;68405;47.190;27.558;2023-05-10T06:33:57;4.30;;;2.90;;
78838;SDS011;68405;47.190;27.558;2023-05-10T06:36:25;3.90;;;3.40;;
78838;SDS011;68405;47.190;27.558;2023-05-10T06:38:54;5.30;;;2.90;;
78838;SDS011;68405;47.190;27.558;2023-05-10T06:41:23;4.90;;;3.00;;
78838;SDS011;68405;47.190;27.558;2023-05-10T06:43:52;4.40;;;3.20;;
78838;SDS011;68405;47.190;27.558;2023-05-10T06:46:21;4.50;;;2.90;;
78838;SDS011;68405;47.190;27.558;2023-05-10T06:48:49;7.30;;;3.30;;
78838;SDS011;68405;47.190;27.558;2023-05-10T06:51:18;5.10;;;3.30;;
78838;SDS011;68405;47.190;27.558;2023-05-10T06:53:48;5.00;;;3.30;;
78838;SDS011;68405;47.190;27.558;2023-05-10T06:56:20;9.20;;;3.20;;
78838;SDS011;68405;47.190;27.558;2023-05-10T06:58:49;6.80;;;3.00;;
78838;SDS011;68405;47.190;27.558;2023-05-10T07:01:19;3.70;;;2.80;;
78838;SDS011;68405;47.190;27.558;2023-05-10T07:03:47;13.50;;;3.20;;
78838;SDS011;68405;47.190;27.558;2023-05-10T07:06:17;4.70;;;2.90;;
78838;SDS011;68405;47.190;27.558;2023-05-10T07:08:46;5.40;;;3.10;;
78838;SDS011;68405;47.190;27.558;2023-05-10T07:11:14;8.40;;;3.20;;
78838;SDS011;68405;47.190;27.558;2023-05-10T07:13:43;5.40;;;3.30;;
78838;SDS011;68405;47.190;27.558;2023-05-10T07:16:13;9.90;;;3.90;;
78838;SDS011;68405;47.190;27.558;2023-05-10T07:18:41;5.00;;;3.40;;
78838;SDS011;68405;47.190;27.558;2023-05-10T07:21:10;4.60;;;3.10;;
78838;SDS011;68405;47.190;27.558;2023-05-10T07:23:39;3.30;;;2.70;;
78838;SDS011;68405;47.190;27.558;2023-05-10T07:26:08;4.50;;;1.90;;
78838;SDS011;68405;47.190;27.558;2023-05-10T07:28:37;5.20;;;2.80;;
78838;SDS011;68405;47.190;27.558;2023-05-10T07:31:06;4.00;;;2.20;;
78838;SDS011;68405;47.190;27.558;2023-05-10T07:33:34;5.50;;;2.30;;
78838;SDS011;68405;47.190;27.558;2023-05-10T07:36:03;2.30;;;2.10;;
78838;SDS011;68405;47.190;27.558;2023-05-10T07:38:32;4.30;;;2.10;;
78838;SDS011;68405;47.190;27.558;2023-05-10T07:41:01;4.40;;;1.70;;
78838;SDS011;68405;47.190;27.558;2023-05-10T07:43:30;4.60;;;1.60;;
78838;SDS011;68405;47.190;27.558;2023-05-10T07:45:58;5.80;;;1.90;;
78838;SDS011;68405;47.190;27.558;2023-05-10T07:48:28;3.50;;;1.90;;
78838;SDS011;68405;47.190;27.558;2023-05-10T07:50:57;2.60;;;1.60;;
78838;SDS011;68405;47.190;27.558;2023-05-10T07:53:26;4.70;;;2.30;;
78838;SDS011;68405;47.190;27.558;2023-05-10T07:55:57;6.10;;;2.10;;
78838;SDS011;68405;47.190;27.558;2023-05-10T07:58:26;2.90;;;1.60;;
78838;SDS011;68405;47.190;27.558;2023-05-10T08:00:55;5.20;;;1.80;;
78838;SDS011;68405;47.190;27.558;2023-05-10T08:03:24;2.80;;;1.90;;
78838;SDS011;68405;47.190;27.558;2023-05-10T08:05:53;4.00;;;1.90;;
78838;SDS011;68405;47.190;27.558;2023-05-10T08:08:22;2.40;;;1.40;;
78838;SDS011;68405;47.190;27.558;2023-05-10T08:10:51;3.90;;;1.60;;
78838;SDS011;68405;47.190;27.558;2023-05-10T08:13:20;4.40;;;1.60;;
78838;SDS011;68405;47.190;27.558;2023-05-10T08:15:49;3.60;;;1.30;;
78838;SDS011;68405;47.190;27.558;2023-05-10T08:18:19;4.50;;;1.50;;
78838;SDS011;68405;47.190;27.558;2023-05-10T08:20:48;2.50;;;1.80;;
78838;SDS011;68405;47.190;27.558;2023-05-10T08:23:17;3.60;;;1.50;;
78838;SDS011;68405;47.190;27.558;2023-05-10T08:25:46;2.00;;;1.50;;
78838;SDS011;68405;47.190;27.558;2023-05-10T08:28:15;4.70;;;1.80;;
78838;SDS011;68405;47.190;27.558;2023-05-10T08:30:44;2.90;;;2.10;;
78838;SDS011;68405;47.190;27.558;2023-05-10T08:33:12;2.30;;;1.80;;
78838;SDS011;68405;47.190;27.558;2023-05-10T08:35:41;8.30;;;1.70;;
78838;SDS011;68405;47.190;27.558;2023-05-10T08:38:10;3.30;;;1.80;;
78838;SDS011;68405;47.190;27.558;2023-05-10T08:40:39;2.60;;;1.90;;
78838;SDS011;68405;47.190;27.558;2023-05-10T08:43:11;3.00;;;1.90;;
78838;SDS011;68405;47.190;27.558;2023-05-10T08:45:43;2.30;;;1.50;;
78838;SDS011;68405;47.190;27.558;2023-05-10T08:48:14;4.70;;;2.10;;
78838;SDS011;68405;47.190;27.558;2023-05-10T08:50:44;3.40;;;1.50;;
78838;SDS011;68405;47.190;27.558;2023-05-10T08:53:15;3.90;;;1.50;;
78838;SDS011;68405;47.190;27.558;2023-05-10T08:55:46;3.40;;;1.70;;
78838;SDS011;68405;47.190;27.558;2023-05-10T08:58:15;2.70;;;1.70;;
78838;SDS011;68405;47.190;27.558;2023-05-10T09:00:46;2.50;;;1.30;;
78838;SDS011;68405;47.190;27.558;2023-05-10T09:03:15;3.60;;;1.60;;
78838;SDS011;68405;47.190;27.558;2023-05-10T09:05:45;2.60;;;1.50;;
78838;SDS011;68405;47.190;27.558;2023-05-10T09:08:15;2.20;;;1.40;;
78838;SDS011;68405;47.190;27.558;2023-05-10T09:10:44;2.70;;;1.50;;
78838;SDS011;68405;47.190;27.558;2023-05-10T09:13:15;2.10;;;1.20;;
78838;SDS011;68405;47.190;27.558;2023-05-10T09:15:46;3.20;;;1.40;;
78838;SDS011;68405;47.190;27.558;2023-05-10T09:18:15;4.10;;;1.70;;
78838;SDS011;68405;47.190;27.558;2023-05-10T09:20:45;3.30;;;1.60;;
78838;SDS011;68405;47.190;27.558;2023-05-10T09:23:14;3.30;;;1.60;;
78838;SDS011;68405;47.190;27.558;2023-05-10T09:25:43;6.00;;;2.10;;
78838;SDS011;68405;47.190;27.558;2023-05-10T09:28:12;6.70;;;1.70;;
78838;SDS011;68405;47.190;27.558;2023-05-10T09:30:41;3.80;;;2.00;;
78838;SDS011;68405;47.190;27.558;2023-05-10T09:33:10;1.90;;;1.30;;
78838;SDS011;68405;47.190;27.558;2023-05-10T09:35:39;3.50;;;1.30;;
78838;SDS011;68405;47.190;27.558;2023-05-10T09:38:08;2.60;;;1.80;;
78838;SDS011;68405;47.190;27.558;2023-05-10T09:40:38;3.10;;;1.40;;
78838;SDS011;68405;47.190;27.558;2023-05-10T09:43:07;2.60;;;1.80;;
78838;SDS011;68405;47.190;27.558;2023-05-10T09:45:37;2.90;;;1.50;;
78838;SDS011;68405;47.190;27.558;2023-05-10T09:48:08;3.50;;;2.20;;
78838;SDS011;68405;47.190;27.558;2023-05-10T09:50:37;7.10;;;2.00;;
78838;SDS011;68405;47.190;27.558;2023-05-10T09:53:07;4.20;;;1.80;;
78838;SDS011;68405;47.190;27.558;2023-05-10T09:55:40;5.10;;;2.30;;
78838;SDS011;68405;47.190;27.558;2023-05-10T09:58:12;3.20;;;2.10;;
78838;SDS011;68405;47.190;27.558;2023-05-10T10:00:42;4.10;;;1.70;;
78838;SDS011;68405;47.190;27.558;2023-05-10T10:03:13;4.10;;;2.30;;
78838;SDS011;68405;47.190;27.558;2023-05-10T10:05:43;10.00;;;2.00;;
78838;SDS011;68405;47.190;27.558;2023-05-10T10:08:14;7.50;;;2.40;;
78838;SDS011;68405;47.190;27.558;2023-05-10T10:10:45;3.70;;;2.00;;
78838;SDS011;68405;47.190;27.558;2023-05-10T10:13:15;5.70;;;2.10;;
78838;SDS011;68405;47.190;27.558;2023-05-10T10:15:45;8.00;;;2.20;;
78838;SDS011;68405;47.190;27.558;2023-05-10T10:20:51;5.20;;;2.50;;
78838;SDS011;68405;47.190;27.558;2023-05-10T10:23:20;3.30;;;2.20;;
78838;SDS011;68405;47.190;27.558;2023-05-10T10:25:50;6.30;;;2.10;;
78838;SDS011;68405;47.190;27.558;2023-05-10T10:28:23;3.10;;;1.70;;
78838;SDS011;68405;47.190;27.558;2023-05-10T10:31:01;6.20;;;1.80;;
78838;SDS011;68405;47.190;27.558;2023-05-10T10:33:56;4.50;;;1.60;;
78838;SDS011;68405;47.190;27.558;2023-05-10T10:36:31;4.10;;;1.90;;
78838;SDS011;68405;47.190;27.558;2023-05-10T10:39:01;3.30;;;1.70;;
78838;SDS011;68405;47.190;27.558;2023-05-10T10:41:37;1.60;;;1.20;;
78838;SDS011;68405;47.190;27.558;2023-05-10T10:44:34;5.10;;;1.80;;
78838;SDS011;68405;47.190;27.558;2023-05-10T10:47:06;2.20;;;1.30;;
78838;SDS011;68405;47.190;27.558;2023-05-10T10:49:52;4.00;;;1.60;;
78838;SDS011;68405;47.190;27.558;2023-05-10T10:52:33;2.30;;;1.90;;
78838;SDS011;68405;47.190;27.558;2023-05-10T10:55:03;3.90;;;1.70;;
78838;SDS011;68405;47.190;27.558;2023-05-10T10:57:43;4.30;;;1.50;;
78838;SDS011;68405;47.190;27.558;2023-05-10T11:03:06;3.70;;;1.50;;
78838;SDS011;68405;47.190;27.558;2023-05-10T11:05:41;5.30;;;1.60;;
78838;SDS011;68405;47.190;27.558;2023-05-10T11:08:13;2.90;;;1.40;;
78838;SDS011;68405;47.190;27.558;2023-05-10T11:10:50;3.40;;;1.60;;
78838;SDS011;68405;47.190;27.558;2023-05-10T11:13:28;2.30;;;1.70;;
78838;SDS011;68405;47.190;27.558;2023-05-10T11:15:58;3.60;;;1.70;;
78838;SDS011;68405;47.190;27.558;2023-05-10T11:18:37;4.30;;;1.70;;
78838;SDS011;68405;47.190;27.558;2023-05-10T11:21:08;2.40;;;1.40;;
78838;SDS011;68405;47.190;27.558;2023-05-10T11:23:53;4.30;;;2.00;;
78838;SDS011;68405;47.190;27.558;2023-05-10T11:28:53;3.70;;;1.80;;
78838;SDS011;68405;47.190;27.558;2023-05-10T11:31:22;2.60;;;1.90;;
78838;SDS011;68405;47.190;27.558;2023-05-10T11:33:53;2.60;;;1.80;;
78838;SDS011;68405;47.190;27.558;2023-05-10T11:36:24;2.10;;;1.70;;
78838;SDS011;68405;47.190;27.558;2023-05-10T11:38:54;2.90;;;1.80;;
78838;SDS011;68405;47.190;27.558;2023-05-10T11:41:24;3.40;;;1.50;;
78838;SDS011;68405;47.190;27.558;2023-05-10T11:43:54;3.60;;;1.60;;
78838;SDS011;68405;47.190;27.558;2023-05-10T11:46:24;4.80;;;1.80;;
78838;SDS011;68405;47.190;27.558;2023-05-10T11:48:55;4.70;;;2.10;;
78838;SDS011;68405;47.190;27.558;2023-05-10T11:51:28;3.40;;;1.40;;
78838;SDS011;68405;47.190;27.558;2023-05-10T11:54:00;2.20;;;1.40;;
78838;SDS011;68405;47.190;27.558;2023-05-10T11:56:33;1.50;;;1.30;;
78838;SDS011;68405;47.190;27.558;2023-05-10T11:59:01;3.00;;;1.50;;
78838;SDS011;68405;47.190;27.558;2023-05-10T12:01:31;2.10;;;1.40;;
78838;SDS011;68405;47.190;27.558;2023-05-10T12:04:00;2.40;;;1.50;;
78838;SDS011;68405;47.190;27.558;2023-05-10T12:06:29;3.70;;;1.20;;
78838;SDS011;68405;47.190;27.558;2023-05-10T12:09:02;4.20;;;1.80;;
78838;SDS011;68405;47.190;27.558;2023-05-10T12:11:37;4.40;;;1.80;;
78838;SDS011;68405;47.190;27.558;2023-05-10T12:14:08;3.80;;;1.80;;
78838;SDS011;68405;47.190;27.558;2023-05-10T12:16:37;4.50;;;1.50;;
78838;SDS011;68405;47.190;27.558;2023-05-10T12:19:06;3.10;;;1.80;;
78838;SDS011;68405;47.190;27.558;2023-05-10T12:21:35;3.20;;;1.80;;
78838;SDS011;68405;47.190;27.558;2023-05-10T12:24:05;2.70;;;2.00;;
78838;SDS011;68405;47.190;27.558;2023-05-10T12:26:35;6.00;;;2.00;;
78838;SDS011;68405;47.190;27.558;2023-05-10T12:29:14;7.10;;;2.10;;
78838;SDS011;68405;47.190;27.558;2023-05-10T12:31:50;2.50;;;2.00;;
78838;SDS011;68405;47.190;27.558;2023-05-10T12:36:52;4.90;;;2.10;;
78838;SDS011;68405;47.190;27.558;2023-05-10T12:39:22;4.80;;;2.10;;
78838;SDS011;68405;47.190;27.558;2023-05-10T12:41:51;2.90;;;1.90;;
78838;SDS011;68405;47.190;27.558;2023-05-10T12:44:20;3.00;;;2.10;;
78838;SDS011;68405;47.190;27.558;2023-05-10T12:46:49;2.50;;;1.80;;
78838;SDS011;68405;47.190;27.558;2023-05-10T12:49:17;3.30;;;2.00;;
78838;SDS011;68405;47.190;27.558;2023-05-10T12:51:47;2.80;;;1.50;;
78838;SDS011;68405;47.190;27.558;2023-05-10T12:54:16;2.60;;;1.60;;
78838;SDS011;68405;47.190;27.558;2023-05-10T12:56:45;3.80;;;1.80;;
78838;SDS011;68405;47.190;27.558;2023-05-10T12:59:14;3.00;;;1.50;;
78838;SDS011;68405;47.190;27.558;2023-05-10T13:01:43;6.20;;;1.90;;
78838;SDS011;68405;47.190;27.558;2023-05-10T13:04:12;2.50;;;1.40;;
78838;SDS011;68405;47.190;27.558;2023-05-10T13:06:40;2.50;;;1.60;;
78838;SDS011;68405;47.190;27.558;2023-05-10T13:09:09;4.60;;;1.70;;
78838;SDS011;68405;47.190;27.558;2023-05-10T13:11:38;4.20;;;2.00;;
78838;SDS011;68405;47.190;27.558;2023-05-10T13:14:07;3.40;;;2.00;;
78838;SDS011;68405;47.190;27.558;2023-05-10T13:16:36;4.40;;;2.10;;
78838;SDS011;68405;47.190;27.558;2023-05-10T13:19:04;2.20;;;1.60;;
78838;SDS011;68405;47.190;27.558;2023-05-10T13:21:33;3.90;;;2.00;;
78838;SDS011;68405;47.190;27.558;2023-05-10T13:24:02;2.50;;;1.80;;
78838;SDS011;68405;47.190;27.558;2023-05-10T13:26:32;5.20;;;1.90;;
78838;SDS011;68405;47.190;27.558;2023-05-10T13:29:01;3.90;;;2.20;;
78838;SDS011;68405;47.190;27.558;2023-05-10T13:31:30;4.10;;;1.60;;
78838;SDS011;68405;47.190;27.558;2023-05-10T13:33:59;2.10;;;1.40;;
78838;SDS011;68405;47.190;27.558;2023-05-10T13:36:29;2.50;;;1.50;;
78838;SDS011;68405;47.190;27.558;2023-05-10T13:38:58;3.30;;;2.20;;
78838;SDS011;68405;47.190;27.558;2023-05-10T13:41:29;3.40;;;2.30;;
78838;SDS011;68405;47.190;27.558;2023-05-10T13:43:58;3.80;;;1.70;;
78838;SDS011;68405;47.190;27.558;2023-05-10T13:46:26;3.00;;;1.80;;
78838;SDS011;68405;47.190;27.558;2023-05-10T13:48:56;2.50;;;1.70;;
78838;SDS011;68405;47.190;27.558;2023-05-10T13:51:25;3.70;;;2.20;;
78838;SDS011;68405;47.190;27.558;2023-05-10T13:53:54;3.20;;;1.80;;
78838;SDS011;68405;47.190;27.558;2023-05-10T13:56:23;2.90;;;1.90;;
78838;SDS011;68405;47.190;27.558;2023-05-10T13:58:51;3.70;;;1.80;;
78838;SDS011;68405;47.190;27.558;2023-05-10T14:01:20;2.80;;;1.90;;
78838;SDS011;68405;47.190;27.558;2023-05-10T14:03:49;2.40;;;1.90;;
78838;SDS011;68405;47.190;27.558;2023-05-10T14:06:18;2.20;;;1.60;;
78838;SDS011;68405;47.190;27.558;2023-05-10T14:08:47;2.70;;;2.10;;
78838;SDS011;68405;47.190;27.558;2023-05-10T14:11:15;3.60;;;1.90;;
78838;SDS011;68405;47.190;27.558;2023-05-10T14:13:44;6.60;;;2.30;;
78838;SDS011;68405;47.190;27.558;2023-05-10T14:16:13;2.90;;;1.80;;
78838;SDS011;68405;47.190;27.558;2023-05-10T14:18:42;3.80;;;1.60;;
78838;SDS011;68405;47.190;27.558;2023-05-10T14:21:11;2.50;;;1.90;;
78838;SDS011;68405;47.190;27.558;2023-05-10T14:23:39;3.10;;;2.10;;
78838;SDS011;68405;47.190;27.558;2023-05-10T14:26:08;6.10;;;1.90;;
78838;SDS011;68405;47.190;27.558;2023-05-10T14:28:37;4.50;;;2.00;;
78838;SDS011;68405;47.190;27.558;2023-05-10T14:31:06;3.60;;;2.30;;
78838;SDS011;68405;47.190;27.558;2023-05-10T14:33:34;2.50;;;1.80;;
78838;SDS011;68405;47.190;27.558;2023-05-10T14:36:05;3.90;;;1.80;;
78838;SDS011;68405;47.190;27.558;2023-05-10T14:38:35;2.70;;;2.10;;
78838;SDS011;68405;47.190;27.558;2023-05-10T14:41:04;3.80;;;1.90;;
78838;SDS011;68405;47.190;27.558;2023-05-10T14:43:33;2.80;;;2.10;;
78838;SDS011;68405;47.190;27.558;2023-05-10T14:46:03;2.80;;;1.80;;
78838;SDS011;68405;47.190;27.558;2023-05-10T14:48:32;2.50;;;2.00;;
78838;SDS011;68405;47.190;27.558;2023-05-10T14:51:01;3.10;;;2.10;;
78838;SDS011;68405;47.190;27.558;2023-05-10T14:53:30;3.90;;;2.60;;
78838;SDS011;68405;47.190;27.558;2023-05-10T14:55:59;2.80;;;2.10;;
78838;SDS011;68405;47.190;27.558;2023-05-10T14:58:29;2.80;;;2.10;;
78838;SDS011;68405;47.190;27.558;2023-05-10T15:00:58;3.00;;;2.20;;
78838;SDS011;68405;47.190;27.558;2023-05-10T15:03:27;4.20;;;2.20;;
78838;SDS011;68405;47.190;27.558;2023-05-10T15:05:56;6.40;;;2.00;;
78838;SDS011;68405;47.190;27.558;2023-05-10T15:08:25;5.00;;;2.00;;
78838;SDS011;68405;47.190;27.558;2023-05-10T15:10:54;3.80;;;2.10;;
78838;SDS011;68405;47.190;27.558;2023-05-10T15:13:23;3.60;;;2.20;;
78838;SDS011;68405;47.190;27.558;2023-05-10T15:15:52;2.90;;;2.00;;
78838;SDS011;68405;47.190;27.558;2023-05-10T15:18:21;7.50;;;2.70;;
78838;SDS011;68405;47.190;27.558;2023-05-10T15:20:49;4.00;;;2.30;;
78838;SDS011;68405;47.190;27.558;2023-05-10T15:23:18;3.50;;;2.20;;
78838;SDS011;68405;47.190;27.558;2023-05-10T15:25:47;3.10;;;2.00;;
78838;SDS011;68405;47.190;27.558;2023-05-10T15:28:17;3.80;;;1.90;;
78838;SDS011;68405;47.190;27.558;2023-05-10T15:30:45;4.20;;;2.20;;